South Channel Island, Victoria

11:05 PM AEDT on February 07, 2016 (GMT +1100)
Rye - No. 16 Beach | | Change Station
CLOSE
Current Station
Personal Weather Station
Location: Rye, VICTORIA
Elevation: 66 ft
Nearby Weather Stations

Elev 66 ft 38.39 °S, 144.79 °E | Updated 16 seconds ago

Mostly Cloudy
Mostly Cloudy
66.2 °F
Feels Like 66.2 °F
N
2.9
Wind Variable Wind from West
Gusts 4.9 mph

Today
High -- | Low -- °F
--% Chance of Precip.
Yesterday
High -- | Low -- °F
Precip. -- in
Pressure 30.09 in
Visibility -9999.0 miles
Clouds Mostly Cloudy 1000 ft
Dew Point 64 °F
Humidity 93%
Rainfall 0.00 in
Snow Depth Not available.
6:39 AM 8:29 PM
Waning Crescent, 2% visible
SPECI YMEN 071204Z AUTO 23009KT //// // BKN010 19/17 Q1019
Pressure 30.09 in
Visibility -9999.0 miles
Clouds Mostly Cloudy 1000 ft
Dew Point 64 °F
Humidity 93%
Rainfall 0.00 in
Snow Depth Not available.
6:39 AM 8:29 PM
Waning Crescent, 2% visible
SPECI YMEN 071204Z AUTO 23009KT //// // BKN010 19/17 Q1019

10-Day Weather Forecast

Almanac

Astronomy

Feb. 07, 2016 Rise Set
Actual Time
Civil Twilight
Nautical Twilight
Astronomical Twilight
Moon
Length of Visible Light
Length of Day
Tomorrow will be .
, % of the Moon is Illuminated

Today's Extremes

Country Highs Country Lows

Community

WunderPhotos

Upload Photos

1,891,182 photos uploaded!

WunderBlog® & News

Nearby

Air Quality

  Air Quality AQ Index Pollutant
Not available.

Snow Depth

Station Depth Elevation

Earthquake Activity

City Distance Mag. Time & Date
Minimum magnitude displayed is 2.5.

Coastal Water Temperatures

Place Temperature

Stations

Nearby Weather Stations

Station Location Temp. Windchill Dew Point Humidity Wind Precip. Elev Updated Type